createdAt,value
2017-08-08T00:01:24.473Z,3.97
2017-08-08T00:03:51.032Z,3.90
2017-08-08T00:06:17.629Z,4.10
2017-08-08T00:08:44.212Z,4.00
2017-08-08T00:11:10.814Z,4.10
2017-08-08T00:13:37.969Z,4.03
2017-08-08T00:16:05.058Z,3.70
2017-08-08T00:18:31.632Z,4.10
2017-08-08T00:20:58.196Z,4.17
2017-08-08T00:23:24.776Z,4.23
2017-08-08T00:25:51.351Z,4.30
2017-08-08T00:28:17.937Z,4.00
2017-08-08T00:30:44.514Z,4.17
2017-08-08T00:33:11.109Z,4.50
2017-08-08T00:35:38.388Z,4.43
2017-08-08T00:38:04.960Z,3.87
2017-08-08T00:40:31.544Z,4.27
2017-08-08T00:42:58.120Z,3.93
2017-08-08T00:45:24.697Z,4.50
2017-08-08T00:47:51.278Z,4.10
2017-08-08T00:50:17.970Z,4.23
2017-08-08T00:52:44.553Z,4.03
2017-08-08T00:55:11.168Z,4.33
2017-08-08T00:57:37.961Z,3.90
2017-08-08T01:00:04.562Z,4.20
2017-08-08T01:02:31.141Z,4.47
2017-08-08T01:04:57.760Z,3.97
2017-08-08T01:07:24.337Z,4.10
2017-08-08T01:09:50.934Z,4.20
2017-08-08T01:12:17.500Z,4.10
2017-08-08T01:14:44.068Z,4.30
2017-08-08T01:17:10.649Z,4.60
2017-08-08T01:19:37.273Z,4.10
2017-08-08T01:22:03.866Z,4.30
2017-08-08T01:24:30.428Z,4.20
2017-08-08T01:26:57.021Z,4.70
2017-08-08T01:29:23.591Z,4.80
2017-08-08T01:31:50.172Z,4.77
2017-08-08T01:34:16.753Z,4.83
2017-08-08T01:36:43.353Z,4.40
2017-08-08T01:39:10.001Z,4.70
2017-08-08T01:41:36.652Z,4.70
2017-08-08T01:44:03.294Z,4.97
2017-08-08T01:46:29.846Z,5.13
2017-08-08T01:48:56.413Z,4.90
2017-08-08T01:51:22.989Z,5.10
2017-08-08T01:53:49.560Z,5.50
2017-08-08T01:56:16.283Z,4.93
2017-08-08T01:58:42.949Z,5.40
2017-08-08T02:01:09.571Z,5.33
2017-08-08T02:03:36.184Z,5.20
2017-08-08T02:06:02.737Z,5.27
2017-08-08T02:08:29.326Z,4.40
2017-08-08T02:10:55.898Z,5.60
2017-08-08T02:13:22.516Z,4.97
2017-08-08T02:15:49.092Z,5.27
2017-08-08T02:18:15.904Z,5.53
2017-08-08T02:20:42.494Z,5.10
2017-08-08T02:23:09.068Z,5.33
2017-08-08T02:25:35.664Z,5.10
2017-08-08T02:28:02.475Z,5.00
2017-08-08T02:30:29.064Z,5.47
2017-08-08T02:32:55.628Z,4.90
2017-08-08T02:35:22.216Z,5.30
2017-08-08T02:37:48.788Z,4.70
2017-08-08T02:40:15.421Z,4.60
2017-08-08T02:42:42.017Z,4.80
2017-08-08T02:45:08.613Z,4.20
2017-08-08T02:47:35.232Z,4.50
2017-08-08T02:50:01.805Z,4.20
2017-08-08T02:52:28.464Z,4.93
2017-08-08T02:54:55.041Z,3.90
2017-08-08T02:57:21.620Z,4.30
2017-08-08T02:59:48.225Z,4.30
2017-08-08T03:02:14.797Z,4.13
2017-08-08T03:04:41.412Z,4.23
2017-08-08T03:07:08.018Z,4.37
2017-08-08T03:09:35.411Z,4.40
2017-08-08T03:12:02.005Z,4.27
2017-08-08T03:14:28.579Z,4.40
2017-08-08T03:16:55.155Z,4.13
2017-08-08T03:19:21.732Z,4.17
2017-08-08T03:21:48.328Z,4.27
2017-08-08T03:24:14.926Z,4.30
2017-08-08T03:26:41.504Z,4.00
2017-08-08T03:29:08.214Z,4.00
2017-08-08T03:31:35.401Z,4.47
2017-08-08T03:34:01.964Z,4.50
2017-08-08T03:36:28.541Z,4.70
2017-08-08T03:38:55.128Z,4.30
2017-08-08T03:41:21.698Z,4.47
2017-08-08T03:43:48.273Z,4.60
2017-08-08T03:46:14.840Z,4.57
2017-08-08T03:48:41.590Z,4.77
2017-08-08T03:51:08.351Z,4.77
2017-08-08T03:53:35.003Z,5.00
2017-08-08T03:56:01.571Z,5.00
2017-08-08T03:58:28.157Z,5.30
2017-08-08T04:00:54.724Z,4.97
2017-08-08T04:03:21.307Z,5.10
2017-08-08T04:05:47.878Z,4.60
2017-08-08T04:08:14.464Z,5.20
2017-08-08T04:10:41.036Z,5.00
2017-08-08T04:13:07.663Z,5.30
2017-08-08T04:15:34.296Z,4.80
2017-08-08T04:18:00.861Z,4.73
2017-08-08T04:20:27.450Z,5.20
2017-08-08T04:22:54.234Z,5.53
2017-08-08T04:25:20.808Z,5.47
2017-08-08T04:27:47.393Z,6.80
2017-08-08T04:30:13.993Z,4.90
2017-08-08T04:32:40.556Z,5.30
2017-08-08T04:35:07.464Z,5.70
2017-08-08T04:37:34.040Z,5.17
2017-08-08T04:40:00.612Z,5.30
2017-08-08T04:42:27.195Z,5.83
2017-08-08T04:44:53.768Z,5.83
2017-08-08T04:47:20.351Z,5.77
2017-08-08T04:49:46.919Z,5.43
2017-08-08T04:52:13.539Z,6.03
2017-08-08T04:54:40.112Z,5.07
2017-08-08T04:57:07.043Z,5.30
2017-08-08T04:59:33.634Z,5.67
2017-08-08T05:02:00.232Z,5.50
2017-08-08T05:04:26.797Z,5.33
2017-08-08T05:06:53.361Z,5.60
2017-08-08T05:09:19.936Z,5.10
2017-08-08T05:11:46.519Z,5.07
2017-08-08T05:14:13.108Z,5.77
2017-08-08T05:16:39.748Z,4.93
2017-08-08T05:19:06.382Z,5.60
2017-08-08T05:21:34.294Z,5.73
2017-08-08T05:24:00.856Z,5.20
2017-08-08T05:26:27.460Z,4.90
2017-08-08T05:28:54.041Z,4.77
2017-08-08T05:31:20.611Z,4.97
2017-08-08T05:33:47.184Z,4.63
2017-08-08T05:36:13.773Z,4.57
2017-08-08T05:38:40.364Z,5.10
2017-08-08T05:41:07.048Z,4.50
2017-08-08T05:43:33.643Z,4.70
2017-08-08T05:46:00.213Z,4.43
2017-08-08T05:48:26.805Z,4.53
2017-08-08T05:50:53.371Z,4.90
2017-08-08T05:53:19.950Z,4.47
2017-08-08T05:55:46.516Z,4.33
2017-08-08T05:58:13.087Z,4.60
2017-08-08T06:00:39.703Z,4.60
2017-08-08T06:03:06.328Z,4.10
2017-08-08T06:05:32.896Z,4.10
2017-08-08T06:07:59.472Z,4.43
2017-08-08T06:10:26.041Z,4.40
2017-08-08T06:12:52.621Z,4.23
2017-08-08T06:15:19.196Z,4.40
2017-08-08T06:17:45.776Z,4.20
2017-08-08T06:20:12.432Z,5.20
2017-08-08T06:22:39.429Z,4.93
2017-08-08T06:25:06.084Z,4.50
2017-08-08T06:27:32.668Z,4.63
2017-08-08T06:29:59.277Z,5.07
2017-08-08T06:32:25.872Z,5.23
2017-08-08T06:34:52.441Z,4.40
2017-08-08T06:37:19.055Z,4.20
2017-08-08T06:39:45.632Z,4.77
2017-08-08T06:42:12.211Z,5.10
2017-08-08T06:44:38.800Z,4.70
2017-08-08T06:47:05.599Z,4.50
2017-08-08T06:49:32.251Z,4.70
2017-08-08T06:51:58.836Z,4.80
2017-08-08T06:54:28.513Z,4.87
2017-08-08T06:57:01.586Z,4.97
2017-08-08T06:59:28.255Z,5.10
2017-08-08T07:02:00.552Z,4.67
2017-08-08T07:04:27.125Z,4.47
2017-08-08T07:06:53.699Z,4.30
2017-08-08T07:09:20.289Z,4.83
2017-08-08T07:11:46.921Z,5.10
2017-08-08T07:14:13.808Z,4.40
2017-08-08T07:16:40.388Z,5.03
2017-08-08T07:19:06.964Z,4.50
2017-08-08T07:21:35.240Z,5.20
2017-08-08T07:24:01.842Z,4.87
2017-08-08T07:26:28.530Z,5.20
2017-08-08T07:28:55.161Z,5.60
2017-08-08T07:31:21.721Z,5.30
2017-08-08T07:33:48.393Z,4.67
2017-08-08T07:36:14.964Z,4.90
2017-08-08T07:38:41.544Z,4.60
2017-08-08T07:41:08.115Z,4.60
2017-08-08T07:43:34.711Z,4.30
2017-08-08T07:46:01.296Z,4.80
2017-08-08T07:48:28.822Z,5.00
2017-08-08T07:50:55.473Z,5.10
2017-08-08T07:53:22.103Z,5.07
2017-08-08T07:55:48.656Z,4.80
2017-08-08T07:58:15.234Z,4.80
2017-08-08T08:00:41.812Z,5.10
2017-08-08T08:03:08.384Z,4.47
2017-08-08T08:05:34.956Z,5.17
2017-08-08T08:08:01.781Z,5.30
2017-08-08T08:10:28.857Z,5.17
2017-08-08T08:12:55.644Z,4.40
2017-08-08T08:15:22.210Z,4.83
2017-08-08T08:17:48.784Z,4.87
2017-08-08T08:20:15.352Z,5.03
2017-08-08T08:22:42.052Z,5.17
2017-08-08T08:25:11.701Z,4.60
2017-08-08T08:27:39.707Z,5.13
2017-08-08T08:30:06.298Z,5.30
2017-08-08T08:32:42.949Z,4.70
2017-08-08T08:35:13.767Z,5.10
2017-08-08T08:37:40.652Z,5.10
2017-08-08T08:40:10.568Z,4.80
2017-08-08T08:42:37.256Z,5.23
2017-08-08T08:45:11.216Z,5.40
2017-08-08T08:47:37.788Z,5.20
2017-08-08T08:50:04.363Z,5.20
2017-08-08T08:52:31.014Z,5.40
2017-08-08T08:54:57.613Z,4.80
2017-08-08T08:57:24.178Z,5.60
2017-08-08T08:59:54.405Z,4.83
2017-08-08T09:02:21.039Z,5.03
2017-08-08T09:04:47.608Z,4.90
2017-08-08T09:07:14.180Z,5.30
2017-08-08T09:09:40.755Z,5.50
2017-08-08T09:12:07.323Z,5.30
2017-08-08T09:14:33.915Z,5.43
2017-08-08T09:17:00.528Z,5.40
2017-08-08T09:19:27.122Z,5.20
2017-08-08T09:21:53.811Z,5.97
2017-08-08T09:24:20.408Z,6.33
2017-08-08T09:26:51.722Z,5.57
2017-08-08T09:29:18.289Z,5.90
2017-08-08T09:31:44.881Z,5.60
2017-08-08T09:34:11.456Z,5.40
2017-08-08T09:36:38.024Z,5.33
2017-08-08T09:39:04.600Z,6.10
2017-08-08T09:41:31.193Z,5.57
2017-08-08T09:43:58.025Z,5.63
2017-08-08T09:46:24.769Z,5.53
2017-08-08T09:48:51.362Z,5.50
2017-08-08T09:51:17.928Z,5.17
2017-08-08T09:53:44.523Z,5.30
2017-08-08T09:56:11.092Z,5.87
2017-08-08T09:58:37.661Z,5.87
2017-08-08T10:01:04.259Z,6.33
2017-08-08T10:03:30.886Z,6.73
2017-08-08T10:05:57.710Z,6.47
2017-08-08T10:08:24.272Z,6.40
2017-08-08T10:10:50.844Z,7.53
2017-08-08T10:13:17.425Z,6.53
2017-08-08T10:15:43.992Z,7.10
2017-08-08T10:18:10.574Z,7.30
2017-08-08T10:20:37.149Z,7.10
2017-08-08T10:23:03.737Z,7.30
2017-08-08T10:25:30.355Z,7.60
2017-08-08T10:27:56.988Z,7.90
2017-08-08T10:30:23.563Z,8.97
2017-08-08T10:32:50.143Z,9.50
2017-08-08T10:35:16.723Z,8.80
2017-08-08T10:37:43.292Z,9.00
2017-08-08T10:40:09.897Z,8.90
2017-08-08T10:42:36.469Z,7.83
2017-08-08T10:45:03.062Z,9.03
2017-08-08T10:47:29.643Z,10.43
2017-08-08T10:49:56.224Z,10.03
2017-08-08T10:52:23.034Z,10.37
2017-08-08T10:54:49.628Z,11.20
2017-08-08T10:57:16.219Z,10.60
2017-08-08T10:59:42.882Z,9.87
2017-08-08T11:02:09.481Z,9.67
2017-08-08T11:04:36.065Z,10.40
2017-08-08T11:07:02.642Z,10.20
2017-08-08T11:09:29.223Z,10.57
2017-08-08T11:11:55.849Z,10.87
2017-08-08T11:14:22.736Z,9.87
2017-08-08T11:16:49.595Z,11.13
2017-08-08T11:19:16.169Z,10.70
2017-08-08T11:21:42.764Z,10.40
2017-08-08T11:24:09.350Z,10.57
2017-08-08T11:26:35.931Z,11.53
2017-08-08T11:29:02.520Z,10.20
2017-08-08T11:31:29.148Z,10.73
2017-08-08T11:33:55.769Z,10.90
2017-08-08T11:36:22.618Z,11.93
2017-08-08T11:38:49.199Z,10.20
2017-08-08T11:41:15.773Z,11.23
2017-08-08T11:43:42.482Z,11.17
2017-08-08T11:46:09.094Z,11.60
2017-08-08T11:48:35.673Z,10.50
2017-08-08T11:51:02.305Z,11.27
2017-08-08T11:53:28.927Z,9.67
2017-08-08T11:55:55.623Z,9.80
2017-08-08T11:58:22.561Z,10.80
2017-08-08T12:00:49.158Z,10.10
2017-08-08T12:03:15.744Z,10.80
2017-08-08T12:05:42.340Z,9.60
2017-08-08T12:08:08.924Z,10.33
2017-08-08T12:10:35.501Z,10.57
2017-08-08T12:13:02.118Z,9.97
2017-08-08T12:15:28.700Z,10.00
2017-08-08T12:17:55.293Z,9.70
2017-08-08T12:20:21.960Z,9.43
2017-08-08T12:22:48.571Z,9.30
2017-08-08T12:25:15.167Z,10.10
2017-08-08T12:27:41.740Z,9.43
2017-08-08T12:30:08.320Z,9.60
2017-08-08T12:32:34.905Z,9.43
2017-08-08T12:35:01.479Z,9.40
2017-08-08T12:37:28.132Z,10.80
2017-08-08T12:39:54.738Z,9.93
2017-08-08T12:42:21.638Z,10.10
2017-08-08T12:44:48.231Z,10.37
2017-08-08T12:47:14.800Z,9.77
2017-08-08T12:49:41.495Z,10.70
2017-08-08T12:52:08.073Z,10.33
2017-08-08T12:54:34.694Z,10.57
2017-08-08T12:57:01.281Z,10.40
2017-08-08T12:59:27.868Z,9.57
2017-08-08T13:01:54.465Z,11.43
2017-08-08T13:04:21.084Z,11.43
2017-08-08T13:06:47.740Z,11.43
2017-08-08T13:09:14.317Z,11.30
2017-08-08T13:11:40.916Z,12.17
2017-08-08T13:14:07.488Z,12.17
2017-08-08T13:16:34.152Z,11.87
2017-08-08T13:19:00.716Z,11.90
2017-08-08T13:21:27.296Z,12.10
2017-08-08T13:23:54.015Z,12.20
2017-08-08T13:26:21.082Z,12.10
2017-08-08T13:28:47.720Z,11.63
2017-08-08T13:31:14.317Z,11.43
2017-08-08T13:33:40.912Z,12.47
2017-08-08T13:36:08.124Z,11.93
2017-08-08T13:38:34.712Z,10.90
2017-08-08T13:41:01.301Z,12.83
2017-08-08T13:43:28.030Z,12.03
2017-08-08T13:45:54.676Z,10.93
2017-08-08T13:48:21.646Z,10.90
2017-08-08T13:50:48.322Z,12.43
2017-08-08T13:53:14.894Z,10.80
2017-08-08T13:55:41.483Z,10.10
2017-08-08T13:58:08.064Z,10.93
2017-08-08T14:00:34.648Z,10.20
2017-08-08T14:03:01.224Z,9.33
2017-08-08T14:05:27.822Z,10.13
2017-08-08T14:07:54.396Z,8.17
2017-08-08T14:10:21.201Z,8.67
2017-08-08T14:12:47.817Z,8.23
2017-08-08T14:15:14.408Z,7.70
2017-08-08T14:17:40.979Z,7.70
2017-08-08T14:20:07.586Z,7.27
2017-08-08T14:22:34.137Z,7.40
2017-08-08T14:25:02.031Z,6.50
2017-08-08T14:27:28.609Z,6.20
2017-08-08T14:29:55.224Z,6.73
2017-08-08T14:32:22.371Z,6.30
2017-08-08T14:34:49.090Z,6.70
2017-08-08T14:37:15.683Z,5.97
2017-08-08T14:39:42.256Z,5.50
2017-08-08T14:42:08.840Z,5.50
2017-08-08T14:44:35.425Z,5.67
2017-08-08T14:47:01.992Z,5.73
2017-08-08T14:49:28.596Z,5.13
2017-08-08T14:51:55.201Z,5.77
2017-08-08T14:54:22.046Z,5.67
2017-08-08T14:56:48.646Z,5.37
2017-08-08T14:59:15.216Z,5.53
2017-08-08T15:01:41.800Z,5.63
2017-08-08T15:04:08.397Z,6.37
2017-08-08T15:06:35.014Z,6.37
2017-08-08T15:09:01.580Z,5.30
2017-08-08T15:11:28.168Z,5.50
2017-08-08T15:13:54.811Z,5.13
2017-08-08T15:16:21.389Z,5.40
2017-08-08T15:18:47.964Z,5.10
2017-08-08T15:21:14.561Z,5.37
2017-08-08T15:23:41.178Z,5.20
2017-08-08T15:26:07.745Z,5.80
2017-08-08T15:28:34.316Z,5.30
2017-08-08T15:31:00.895Z,5.67
2017-08-08T15:33:27.480Z,5.30
2017-08-08T15:35:54.314Z,5.83
2017-08-08T15:38:21.255Z,5.40
2017-08-08T15:40:47.819Z,5.93
2017-08-08T15:43:14.410Z,4.80
2017-08-08T15:45:40.980Z,5.10
2017-08-08T15:48:07.630Z,4.80
2017-08-08T15:50:34.182Z,4.77
2017-08-08T15:53:00.757Z,4.70
2017-08-08T15:55:27.346Z,4.70
2017-08-08T15:57:54.740Z,4.60
2017-08-08T16:00:21.448Z,4.27
2017-08-08T16:02:48.053Z,3.90
2017-08-08T16:05:14.624Z,3.57
2017-08-08T16:07:41.327Z,3.43
2017-08-08T16:10:07.904Z,3.47
2017-08-08T16:12:34.479Z,3.30
2017-08-08T16:15:01.053Z,3.27
2017-08-08T16:20:12.360Z,3.40
2017-08-08T16:22:38.938Z,3.70
2017-08-08T16:25:05.513Z,3.23
2017-08-08T16:27:32.167Z,3.20
2017-08-08T16:29:58.724Z,3.53
2017-08-08T16:32:25.325Z,3.80
2017-08-08T16:34:52.363Z,4.30
2017-08-08T16:37:19.009Z,4.30
2017-08-08T16:39:45.673Z,4.77
2017-08-08T16:42:12.397Z,5.40
2017-08-08T16:44:39.009Z,5.30
2017-08-08T16:47:05.615Z,5.80
2017-08-08T16:49:32.271Z,5.60
2017-08-08T16:51:58.913Z,5.77
2017-08-08T16:54:25.489Z,5.70
2017-08-08T16:56:52.226Z,5.87
2017-08-08T16:59:18.876Z,5.83
2017-08-08T17:01:45.553Z,6.40
2017-08-08T17:04:12.205Z,6.00
2017-08-08T17:06:38.785Z,6.33
2017-08-08T17:09:05.360Z,7.40
2017-08-08T17:11:32.044Z,6.77
2017-08-08T17:13:58.651Z,6.37
2017-08-08T17:16:25.310Z,6.13
2017-08-08T17:18:52.042Z,6.60
2017-08-08T17:21:18.767Z,7.10
2017-08-08T17:23:45.342Z,6.50
2017-08-08T17:26:12.081Z,6.87
2017-08-08T17:28:41.345Z,6.27
2017-08-08T17:31:08.024Z,6.40
2017-08-08T17:33:34.749Z,6.40
2017-08-08T17:36:01.319Z,6.07
2017-08-08T17:38:27.889Z,6.50
2017-08-08T17:40:54.694Z,6.87
2017-08-08T17:43:21.375Z,6.23
2017-08-08T17:45:55.935Z,7.20
2017-08-08T17:48:22.579Z,6.50
2017-08-08T17:50:49.192Z,6.40
2017-08-08T17:53:15.759Z,6.87
2017-08-08T17:55:42.328Z,6.50
2017-08-08T17:58:08.919Z,5.23
2017-08-08T18:00:35.864Z,4.43
2017-08-08T18:03:02.440Z,3.83
2017-08-08T18:05:29.009Z,3.30
2017-08-08T18:07:55.763Z,3.30
2017-08-08T18:10:23.474Z,3.17
2017-08-08T18:12:50.129Z,2.80
2017-08-08T18:15:16.853Z,3.20
2017-08-08T18:17:43.423Z,3.07
2017-08-08T18:20:10.002Z,2.90
2017-08-08T18:22:36.728Z,2.80
2017-08-08T18:27:47.423Z,3.00
2017-08-08T18:30:14.058Z,2.70
2017-08-08T18:32:40.668Z,2.77
2017-08-08T18:35:07.272Z,2.90
2017-08-08T18:37:33.945Z,2.87
2017-08-08T18:40:00.537Z,3.10
2017-08-08T18:42:27.130Z,3.60
2017-08-08T18:44:53.899Z,3.20
2017-08-08T18:47:20.521Z,3.40
2017-08-08T18:49:47.182Z,3.30
2017-08-08T19:00:28.190Z,3.70
2017-08-08T19:02:54.878Z,3.37
2017-08-08T19:05:24.126Z,3.63
2017-08-08T19:08:00.615Z,3.67
2017-08-08T19:10:27.200Z,4.20
2017-08-08T19:12:59.653Z,3.80
2017-08-08T19:15:31.944Z,3.97
2017-08-08T19:17:59.604Z,4.67
2017-08-08T19:20:26.254Z,3.90
2017-08-08T19:22:59.449Z,4.33
2017-08-08T19:25:26.587Z,4.20
2017-08-08T19:27:53.170Z,4.00
2017-08-08T19:30:19.803Z,4.17
2017-08-08T19:32:49.866Z,3.67
2017-08-08T19:35:16.533Z,3.90
2017-08-08T19:37:49.750Z,3.90
2017-08-08T19:40:16.330Z,4.23
2017-08-08T19:42:42.910Z,4.20
2017-08-08T19:45:19.444Z,4.10
2017-08-08T19:47:46.036Z,4.73
2017-08-08T19:50:12.697Z,3.97
2017-08-08T19:52:39.257Z,4.97
2017-08-08T19:55:05.829Z,4.60
2017-08-08T19:57:38.567Z,4.83
2017-08-08T20:00:05.147Z,5.30
2017-08-08T20:02:31.729Z,4.43
2017-08-08T20:04:58.317Z,4.97
2017-08-08T20:07:27.985Z,5.00
2017-08-08T20:09:54.582Z,4.67
2017-08-08T20:12:21.203Z,5.00
2017-08-08T20:14:47.797Z,5.73
2017-08-08T20:17:14.529Z,5.10
2017-08-08T20:19:41.081Z,5.00
2017-08-08T20:22:07.705Z,5.60
2017-08-08T20:24:34.326Z,5.67
2017-08-08T20:27:00.897Z,5.17
2017-08-08T20:29:27.485Z,5.40
2017-08-08T20:31:54.074Z,5.37
2017-08-08T20:34:20.757Z,8.10
2017-08-08T20:36:47.428Z,7.70
2017-08-08T20:39:14.007Z,5.93
2017-08-08T20:41:40.581Z,5.30
2017-08-08T20:44:07.157Z,5.23
2017-08-08T20:46:33.745Z,5.20
2017-08-08T20:49:00.318Z,4.90
2017-08-08T20:51:26.909Z,5.40
2017-08-08T20:53:53.513Z,5.37
2017-08-08T20:56:20.207Z,5.33
2017-08-08T20:58:46.782Z,4.90
2017-08-08T21:01:13.413Z,5.53
2017-08-08T21:03:39.981Z,5.27
2017-08-08T21:06:06.556Z,5.47
2017-08-08T21:08:33.134Z,5.60
2017-08-08T21:10:59.718Z,5.23
2017-08-08T21:13:26.320Z,6.00
2017-08-08T21:15:53.016Z,5.90
2017-08-08T21:18:19.649Z,6.17
2017-08-08T21:20:46.231Z,5.83
2017-08-08T21:23:12.841Z,5.73
2017-08-08T21:25:39.425Z,5.77
2017-08-08T21:28:05.993Z,5.07
2017-08-08T21:30:32.645Z,6.57
2017-08-08T21:32:59.203Z,5.80
2017-08-08T21:35:25.792Z,6.50
2017-08-08T21:37:52.410Z,6.80
2017-08-08T21:40:18.995Z,6.60
2017-08-08T21:42:45.583Z,6.73
2017-08-08T21:45:12.174Z,6.30
2017-08-08T21:47:38.772Z,6.37
2017-08-08T21:50:05.340Z,7.23
2017-08-08T21:52:31.917Z,6.57
2017-08-08T21:54:58.497Z,7.27
2017-08-08T21:57:25.117Z,7.40
2017-08-08T21:59:51.920Z,6.90
2017-08-08T22:02:18.589Z,7.50
2017-08-08T22:04:45.214Z,8.03
2017-08-08T22:07:11.794Z,7.20
2017-08-08T22:09:38.373Z,6.63
2017-08-08T22:12:04.969Z,6.60
2017-08-08T22:14:31.544Z,6.30
2017-08-08T22:16:58.120Z,6.97
2017-08-08T22:19:24.752Z,7.20
2017-08-08T22:21:51.401Z,7.03
2017-08-08T22:24:18.023Z,7.30
2017-08-08T22:26:44.597Z,7.00
2017-08-08T22:29:11.241Z,6.33
2017-08-08T22:31:37.824Z,6.70
2017-08-08T22:34:04.401Z,6.70
2017-08-08T22:36:30.985Z,7.03
2017-08-08T22:38:57.573Z,8.23
2017-08-08T22:41:24.316Z,9.47
2017-08-08T22:43:50.912Z,9.00
2017-08-08T22:46:17.489Z,8.70
2017-08-08T22:48:44.124Z,8.90
2017-08-08T22:51:10.791Z,8.40
2017-08-08T22:53:37.410Z,8.57
2017-08-08T22:56:03.985Z,8.00
2017-08-08T22:58:30.568Z,7.77
2017-08-08T23:00:57.165Z,7.97
2017-08-08T23:03:23.753Z,8.13
2017-08-08T23:05:50.681Z,8.07
2017-08-08T23:08:17.281Z,7.70
2017-08-08T23:10:43.869Z,7.47
2017-08-08T23:13:10.451Z,7.90
2017-08-08T23:15:37.020Z,7.87
2017-08-08T23:18:03.604Z,8.00
2017-08-08T23:20:30.199Z,7.33
2017-08-08T23:22:56.793Z,7.67
2017-08-08T23:25:23.566Z,7.83
2017-08-08T23:27:50.151Z,7.57
2017-08-08T23:30:16.725Z,7.73
2017-08-08T23:32:43.301Z,7.60
2017-08-08T23:35:09.921Z,7.57
2017-08-08T23:37:38.391Z,7.30
2017-08-08T23:40:04.970Z,7.53
2017-08-08T23:42:31.560Z,7.50
2017-08-08T23:44:58.145Z,7.13
2017-08-08T23:47:24.741Z,7.60
2017-08-08T23:49:51.327Z,7.17
2017-08-08T23:52:17.954Z,6.97
2017-08-08T23:54:44.536Z,7.00
2017-08-08T23:57:11.114Z,7.67
2017-08-08T23:59:37.757Z,7.40
